sensor_id;sensor_type;location;lat;lon;timestamp;P1;durP1;ratioP1;P2;durP2;ratioP2
42702;SDS011;28341;52.064;4.920;2023-06-22T00:01:59;13.23;;;10.82;;
42702;SDS011;28341;52.064;4.920;2023-06-22T00:04:04;14.75;;;12.82;;
42702;SDS011;28341;52.064;4.920;2023-06-22T00:06:08;14.07;;;12.40;;
42702;SDS011;28341;52.064;4.920;2023-06-22T00:08:12;13.52;;;12.05;;
42702;SDS011;28341;52.064;4.920;2023-06-22T00:10:17;14.82;;;11.40;;
42702;SDS011;28341;52.064;4.920;2023-06-22T00:12:22;14.50;;;12.07;;
42702;SDS011;28341;52.064;4.920;2023-06-22T00:14:26;13.93;;;12.48;;
42702;SDS011;28341;52.064;4.920;2023-06-22T00:16:34;14.75;;;12.65;;
42702;SDS011;28341;52.064;4.920;2023-06-22T00:18:38;13.18;;;11.77;;
42702;SDS011;28341;52.064;4.920;2023-06-22T00:20:47;12.35;;;11.10;;
42702;SDS011;28341;52.064;4.920;2023-06-22T00:22:53;14.57;;;11.60;;
42702;SDS011;28341;52.064;4.920;2023-06-22T00:24:57;14.68;;;12.13;;
42702;SDS011;28341;52.064;4.920;2023-06-22T00:27:01;13.02;;;11.73;;
42702;SDS011;28341;52.064;4.920;2023-06-22T00:29:06;13.02;;;11.50;;
42702;SDS011;28341;52.064;4.920;2023-06-22T00:31:11;12.98;;;11.68;;
42702;SDS011;28341;52.064;4.920;2023-06-22T00:33:18;15.55;;;12.65;;
42702;SDS011;28341;52.064;4.920;2023-06-22T00:35:22;15.50;;;13.90;;
42702;SDS011;28341;52.064;4.920;2023-06-22T00:37:29;15.05;;;13.18;;
42702;SDS011;28341;52.064;4.920;2023-06-22T00:39:33;13.82;;;12.32;;
42702;SDS011;28341;52.064;4.920;2023-06-22T00:41:38;15.07;;;12.90;;
42702;SDS011;28341;52.064;4.920;2023-06-22T00:43:42;16.38;;;14.20;;
42702;SDS011;28341;52.064;4.920;2023-06-22T00:45:46;15.38;;;13.45;;
42702;SDS011;28341;52.064;4.920;2023-06-22T00:47:51;16.40;;;14.25;;
42702;SDS011;28341;52.064;4.920;2023-06-22T00:49:59;15.63;;;14.02;;
42702;SDS011;28341;52.064;4.920;2023-06-22T00:52:05;16.45;;;13.77;;
42702;SDS011;28341;52.064;4.920;2023-06-22T00:54:14;17.83;;;14.32;;
42702;SDS011;28341;52.064;4.920;2023-06-22T00:56:22;18.42;;;14.20;;
42702;SDS011;28341;52.064;4.920;2023-06-22T00:58:30;16.35;;;14.40;;
42702;SDS011;28341;52.064;4.920;2023-06-22T01:00:34;17.35;;;14.40;;
42702;SDS011;28341;52.064;4.920;2023-06-22T01:02:39;15.13;;;13.40;;
42702;SDS011;28341;52.064;4.920;2023-06-22T01:04:46;16.33;;;14.43;;
42702;SDS011;28341;52.064;4.920;2023-06-22T01:06:54;17.17;;;15.07;;
42702;SDS011;28341;52.064;4.920;2023-06-22T01:09:06;17.08;;;14.35;;
42702;SDS011;28341;52.064;4.920;2023-06-22T01:11:16;22.17;;;16.00;;
42702;SDS011;28341;52.064;4.920;2023-06-22T01:13:27;18.88;;;16.30;;
42702;SDS011;28341;52.064;4.920;2023-06-22T01:15:37;18.15;;;14.98;;
42702;SDS011;28341;52.064;4.920;2023-06-22T01:17:43;16.98;;;14.93;;
42702;SDS011;28341;52.064;4.920;2023-06-22T01:19:49;17.33;;;15.63;;
42702;SDS011;28341;52.064;4.920;2023-06-22T01:21:58;17.75;;;15.90;;
42702;SDS011;28341;52.064;4.920;2023-06-22T01:24:10;17.88;;;16.08;;
42702;SDS011;28341;52.064;4.920;2023-06-22T01:26:21;22.27;;;18.13;;
42702;SDS011;28341;52.064;4.920;2023-06-22T01:28:43;20.02;;;17.92;;
42702;SDS011;28341;52.064;4.920;2023-06-22T01:30:50;23.05;;;19.90;;
42702;SDS011;28341;52.064;4.920;2023-06-22T01:33:05;25.10;;;20.65;;
42702;SDS011;28341;52.064;4.920;2023-06-22T01:35:11;21.27;;;19.05;;
42702;SDS011;28341;52.064;4.920;2023-06-22T01:37:17;21.92;;;17.98;;
42702;SDS011;28341;52.064;4.920;2023-06-22T01:39:24;21.08;;;17.90;;
42702;SDS011;28341;52.064;4.920;2023-06-22T01:41:29;23.90;;;19.40;;
42702;SDS011;28341;52.064;4.920;2023-06-22T01:43:39;21.95;;;19.67;;
42702;SDS011;28341;52.064;4.920;2023-06-22T01:45:46;20.75;;;18.52;;
42702;SDS011;28341;52.064;4.920;2023-06-22T01:47:50;23.48;;;20.42;;
42702;SDS011;28341;52.064;4.920;2023-06-22T01:49:55;21.85;;;19.15;;
42702;SDS011;28341;52.064;4.920;2023-06-22T01:52:00;26.30;;;22.65;;
42702;SDS011;28341;52.064;4.920;2023-06-22T01:54:05;24.80;;;21.40;;
42702;SDS011;28341;52.064;4.920;2023-06-22T01:56:10;24.52;;;21.92;;
42702;SDS011;28341;52.064;4.920;2023-06-22T01:58:15;26.67;;;23.17;;
42702;SDS011;28341;52.064;4.920;2023-06-22T02:00:20;29.38;;;25.52;;
42702;SDS011;28341;52.064;4.920;2023-06-22T02:02:30;28.70;;;23.73;;
42702;SDS011;28341;52.064;4.920;2023-06-22T02:04:43;29.00;;;22.42;;
42702;SDS011;28341;52.064;4.920;2023-06-22T02:06:51;25.05;;;20.23;;
42702;SDS011;28341;52.064;4.920;2023-06-22T02:09:01;30.50;;;22.92;;
42702;SDS011;28341;52.064;4.920;2023-06-22T02:11:09;31.17;;;23.05;;
42702;SDS011;28341;52.064;4.920;2023-06-22T02:13:13;23.58;;;21.05;;
42702;SDS011;28341;52.064;4.920;2023-06-22T02:15:18;31.02;;;23.77;;
42702;SDS011;28341;52.064;4.920;2023-06-22T02:17:30;24.35;;;21.40;;
42702;SDS011;28341;52.064;4.920;2023-06-22T02:19:36;24.00;;;21.40;;
42702;SDS011;28341;52.064;4.920;2023-06-22T02:21:40;26.92;;;23.95;;
42702;SDS011;28341;52.064;4.920;2023-06-22T02:23:44;27.45;;;24.50;;
42702;SDS011;28341;52.064;4.920;2023-06-22T02:25:49;26.17;;;21.17;;
42702;SDS011;28341;52.064;4.920;2023-06-22T02:27:53;26.17;;;23.38;;
42702;SDS011;28341;52.064;4.920;2023-06-22T02:29:58;28.45;;;23.52;;
42702;SDS011;28341;52.064;4.920;2023-06-22T02:32:05;25.00;;;21.88;;
42702;SDS011;28341;52.064;4.920;2023-06-22T02:34:13;22.48;;;20.00;;
42702;SDS011;28341;52.064;4.920;2023-06-22T02:36:18;26.27;;;21.17;;
42702;SDS011;28341;52.064;4.920;2023-06-22T02:38:24;28.60;;;21.92;;
42702;SDS011;28341;52.064;4.920;2023-06-22T02:40:28;26.30;;;23.05;;
42702;SDS011;28341;52.064;4.920;2023-06-22T02:42:33;24.98;;;21.75;;
42702;SDS011;28341;52.064;4.920;2023-06-22T02:44:37;26.75;;;21.92;;
42702;SDS011;28341;52.064;4.920;2023-06-22T02:46:41;29.35;;;24.52;;
42702;SDS011;28341;52.064;4.920;2023-06-22T02:48:47;26.42;;;23.63;;
42702;SDS011;28341;52.064;4.920;2023-06-22T02:50:54;23.85;;;20.00;;
42702;SDS011;28341;52.064;4.920;2023-06-22T02:52:59;26.73;;;21.17;;
42702;SDS011;28341;52.064;4.920;2023-06-22T02:55:08;25.77;;;21.33;;
42702;SDS011;28341;52.064;4.920;2023-06-22T02:57:12;25.27;;;20.70;;
42702;SDS011;28341;52.064;4.920;2023-06-22T02:59:18;27.75;;;21.05;;
42702;SDS011;28341;52.064;4.920;2023-06-22T03:01:24;26.60;;;21.73;;
42702;SDS011;28341;52.064;4.920;2023-06-22T03:03:31;24.35;;;19.98;;
42702;SDS011;28341;52.064;4.920;2023-06-22T03:05:35;27.13;;;22.80;;
42702;SDS011;28341;52.064;4.920;2023-06-22T03:07:43;24.15;;;21.00;;
42702;SDS011;28341;52.064;4.920;2023-06-22T03:09:48;24.77;;;21.70;;
42702;SDS011;28341;52.064;4.920;2023-06-22T03:11:52;24.42;;;21.02;;
42702;SDS011;28341;52.064;4.920;2023-06-22T03:14:00;25.45;;;20.40;;
42702;SDS011;28341;52.064;4.920;2023-06-22T03:16:04;25.33;;;21.08;;
42702;SDS011;28341;52.064;4.920;2023-06-22T03:18:09;23.23;;;19.98;;
42702;SDS011;28341;52.064;4.920;2023-06-22T03:20:13;26.88;;;22.08;;
42702;SDS011;28341;52.064;4.920;2023-06-22T03:22:17;24.17;;;20.83;;
42702;SDS011;28341;52.064;4.920;2023-06-22T03:24:26;26.35;;;21.58;;
42702;SDS011;28341;52.064;4.920;2023-06-22T03:26:31;23.42;;;20.17;;
42702;SDS011;28341;52.064;4.920;2023-06-22T03:28:35;23.92;;;21.25;;
42702;SDS011;28341;52.064;4.920;2023-06-22T03:30:42;23.20;;;20.23;;
42702;SDS011;28341;52.064;4.920;2023-06-22T03:32:46;26.30;;;21.98;;
42702;SDS011;28341;52.064;4.920;2023-06-22T03:34:50;30.05;;;23.33;;
42702;SDS011;28341;52.064;4.920;2023-06-22T03:36:55;26.13;;;21.65;;
42702;SDS011;28341;52.064;4.920;2023-06-22T03:39:00;28.80;;;23.50;;
42702;SDS011;28341;52.064;4.920;2023-06-22T03:41:07;26.88;;;21.83;;
42702;SDS011;28341;52.064;4.920;2023-06-22T03:43:11;26.88;;;22.10;;
42702;SDS011;28341;52.064;4.920;2023-06-22T03:45:15;27.42;;;23.45;;
42702;SDS011;28341;52.064;4.920;2023-06-22T03:47:21;26.95;;;22.48;;
42702;SDS011;28341;52.064;4.920;2023-06-22T03:49:26;30.83;;;25.83;;
42702;SDS011;28341;52.064;4.920;2023-06-22T03:51:30;34.03;;;25.75;;
42702;SDS011;28341;52.064;4.920;2023-06-22T03:53:36;30.05;;;23.73;;
42702;SDS011;28341;52.064;4.920;2023-06-22T03:55:42;28.13;;;22.88;;
42702;SDS011;28341;52.064;4.920;2023-06-22T03:57:54;31.65;;;25.55;;
42702;SDS011;28341;52.064;4.920;2023-06-22T04:00:06;33.40;;;26.95;;
42702;SDS011;28341;52.064;4.920;2023-06-22T04:02:12;38.20;;;30.05;;
42702;SDS011;28341;52.064;4.920;2023-06-22T04:04:17;33.05;;;26.27;;
42702;SDS011;28341;52.064;4.920;2023-06-22T04:06:21;38.95;;;29.73;;
42702;SDS011;28341;52.064;4.920;2023-06-22T04:08:26;40.95;;;30.33;;
42702;SDS011;28341;52.064;4.920;2023-06-22T04:10:31;47.28;;;32.80;;
42702;SDS011;28341;52.064;4.920;2023-06-22T04:12:35;43.58;;;31.52;;
42702;SDS011;28341;52.064;4.920;2023-06-22T04:14:42;38.17;;;30.05;;
42702;SDS011;28341;52.064;4.920;2023-06-22T04:16:46;41.60;;;30.95;;
42702;SDS011;28341;52.064;4.920;2023-06-22T04:18:51;37.60;;;29.42;;
42702;SDS011;28341;52.064;4.920;2023-06-22T04:20:55;40.65;;;29.52;;
42702;SDS011;28341;52.064;4.920;2023-06-22T04:22:59;39.67;;;29.25;;
42702;SDS011;28341;52.064;4.920;2023-06-22T04:25:05;39.70;;;30.52;;
42702;SDS011;28341;52.064;4.920;2023-06-22T04:27:10;38.97;;;29.13;;
42702;SDS011;28341;52.064;4.920;2023-06-22T04:29:14;36.78;;;28.83;;
42702;SDS011;28341;52.064;4.920;2023-06-22T04:31:22;36.65;;;27.00;;
42702;SDS011;28341;52.064;4.920;2023-06-22T04:33:32;35.13;;;28.05;;
42702;SDS011;28341;52.064;4.920;2023-06-22T04:35:36;40.15;;;29.20;;
42702;SDS011;28341;52.064;4.920;2023-06-22T04:37:41;34.33;;;27.05;;
42702;SDS011;28341;52.064;4.920;2023-06-22T04:39:46;35.17;;;28.25;;
42702;SDS011;28341;52.064;4.920;2023-06-22T04:41:50;40.60;;;28.33;;
42702;SDS011;28341;52.064;4.920;2023-06-22T04:44:01;35.88;;;28.13;;
42702;SDS011;28341;52.064;4.920;2023-06-22T04:46:05;37.72;;;27.63;;
42702;SDS011;28341;52.064;4.920;2023-06-22T04:48:12;37.83;;;27.70;;
42702;SDS011;28341;52.064;4.920;2023-06-22T04:50:17;37.28;;;26.58;;
42702;SDS011;28341;52.064;4.920;2023-06-22T04:52:22;35.70;;;25.65;;
42702;SDS011;28341;52.064;4.920;2023-06-22T04:54:26;34.15;;;27.40;;
42702;SDS011;28341;52.064;4.920;2023-06-22T04:56:33;37.92;;;27.40;;
42702;SDS011;28341;52.064;4.920;2023-06-22T04:58:38;33.55;;;26.48;;
42702;SDS011;28341;52.064;4.920;2023-06-22T05:00:42;34.60;;;25.95;;
42702;SDS011;28341;52.064;4.920;2023-06-22T05:02:46;29.38;;;25.25;;
42702;SDS011;28341;52.064;4.920;2023-06-22T05:04:53;32.80;;;24.63;;
42702;SDS011;28341;52.064;4.920;2023-06-22T05:06:58;31.38;;;23.77;;
42702;SDS011;28341;52.064;4.920;2023-06-22T05:09:03;27.00;;;23.05;;
42702;SDS011;28341;52.064;4.920;2023-06-22T05:11:07;31.13;;;24.35;;
42702;SDS011;28341;52.064;4.920;2023-06-22T05:13:11;28.13;;;23.08;;
42702;SDS011;28341;52.064;4.920;2023-06-22T05:15:16;31.08;;;24.23;;
42702;SDS011;28341;52.064;4.920;2023-06-22T05:17:23;30.27;;;23.10;;
42702;SDS011;28341;52.064;4.920;2023-06-22T05:19:28;28.65;;;22.92;;
42702;SDS011;28341;52.064;4.920;2023-06-22T05:21:36;33.80;;;25.33;;
42702;SDS011;28341;52.064;4.920;2023-06-22T05:23:40;31.55;;;25.70;;
42702;SDS011;28341;52.064;4.920;2023-06-22T05:25:45;34.70;;;26.38;;
42702;SDS011;28341;52.064;4.920;2023-06-22T05:27:49;32.40;;;26.33;;
42702;SDS011;28341;52.064;4.920;2023-06-22T05:29:54;35.47;;;26.58;;
42702;SDS011;28341;52.064;4.920;2023-06-22T05:31:58;34.30;;;26.88;;
42702;SDS011;28341;52.064;4.920;2023-06-22T05:34:03;33.28;;;26.88;;
42702;SDS011;28341;52.064;4.920;2023-06-22T05:36:07;36.42;;;26.63;;
42702;SDS011;28341;52.064;4.920;2023-06-22T05:38:15;32.00;;;26.35;;
42702;SDS011;28341;52.064;4.920;2023-06-22T05:40:20;31.45;;;25.10;;
42702;SDS011;28341;52.064;4.920;2023-06-22T05:42:24;34.42;;;26.95;;
42702;SDS011;28341;52.064;4.920;2023-06-22T05:44:28;32.25;;;23.25;;
42702;SDS011;28341;52.064;4.920;2023-06-22T05:46:33;30.58;;;23.88;;
42702;SDS011;28341;52.064;4.920;2023-06-22T05:48:38;27.73;;;24.60;;
42702;SDS011;28341;52.064;4.920;2023-06-22T05:50:42;29.27;;;25.10;;
42702;SDS011;28341;52.064;4.920;2023-06-22T05:52:47;27.33;;;23.63;;
42702;SDS011;28341;52.064;4.920;2023-06-22T05:54:53;29.15;;;23.75;;
42702;SDS011;28341;52.064;4.920;2023-06-22T05:56:58;32.90;;;24.67;;
42702;SDS011;28341;52.064;4.920;2023-06-22T05:59:03;25.45;;;21.30;;
42702;SDS011;28341;52.064;4.920;2023-06-22T06:01:08;29.63;;;22.95;;
42702;SDS011;28341;52.064;4.920;2023-06-22T06:03:12;28.13;;;21.80;;
42702;SDS011;28341;52.064;4.920;2023-06-22T06:05:17;25.23;;;21.30;;
42702;SDS011;28341;52.064;4.920;2023-06-22T06:07:23;29.20;;;21.92;;
42702;SDS011;28341;52.064;4.920;2023-06-22T06:09:27;25.02;;;21.17;;
42702;SDS011;28341;52.064;4.920;2023-06-22T06:11:34;27.33;;;20.90;;
42702;SDS011;28341;52.064;4.920;2023-06-22T06:13:38;27.98;;;21.38;;
42702;SDS011;28341;52.064;4.920;2023-06-22T06:15:43;26.70;;;20.85;;
42702;SDS011;28341;52.064;4.920;2023-06-22T06:17:48;28.92;;;21.38;;
42702;SDS011;28341;52.064;4.920;2023-06-22T06:19:53;28.55;;;22.73;;
42702;SDS011;28341;52.064;4.920;2023-06-22T06:21:57;25.58;;;19.67;;
42702;SDS011;28341;52.064;4.920;2023-06-22T06:24:01;26.45;;;20.15;;
42702;SDS011;28341;52.064;4.920;2023-06-22T06:26:06;22.70;;;20.08;;
42702;SDS011;28341;52.064;4.920;2023-06-22T06:28:13;26.83;;;19.63;;
42702;SDS011;28341;52.064;4.920;2023-06-22T06:30:18;23.50;;;19.42;;
42702;SDS011;28341;52.064;4.920;2023-06-22T06:32:22;24.80;;;20.23;;
42702;SDS011;28341;52.064;4.920;2023-06-22T06:34:27;21.05;;;18.40;;
42702;SDS011;28341;52.064;4.920;2023-06-22T06:36:31;25.00;;;19.85;;
42702;SDS011;28341;52.064;4.920;2023-06-22T06:38:36;28.92;;;19.10;;
42702;SDS011;28341;52.064;4.920;2023-06-22T06:40:40;26.77;;;20.92;;
42702;SDS011;28341;52.064;4.920;2023-06-22T06:42:46;24.63;;;19.45;;
42702;SDS011;28341;52.064;4.920;2023-06-22T06:44:54;29.05;;;21.10;;
42702;SDS011;28341;52.064;4.920;2023-06-22T06:46:58;29.48;;;21.70;;
42702;SDS011;28341;52.064;4.920;2023-06-22T06:49:01;24.60;;;21.17;;
42702;SDS011;28341;52.064;4.920;2023-06-22T06:51:06;24.17;;;20.63;;
42702;SDS011;28341;52.064;4.920;2023-06-22T06:53:11;28.13;;;20.75;;
42702;SDS011;28341;52.064;4.920;2023-06-22T06:55:16;32.80;;;21.33;;
42702;SDS011;28341;52.064;4.920;2023-06-22T06:57:21;26.80;;;20.13;;
42702;SDS011;28341;52.064;4.920;2023-06-22T06:59:29;27.98;;;22.35;;
42702;SDS011;28341;52.064;4.920;2023-06-22T07:01:36;28.67;;;23.98;;
42702;SDS011;28341;52.064;4.920;2023-06-22T07:03:40;29.92;;;24.08;;
42702;SDS011;28341;52.064;4.920;2023-06-22T07:05:44;32.72;;;25.85;;
42702;SDS011;28341;52.064;4.920;2023-06-22T07:07:49;30.05;;;23.95;;
42702;SDS011;28341;52.064;4.920;2023-06-22T07:09:53;34.33;;;25.20;;
42702;SDS011;28341;52.064;4.920;2023-06-22T07:11:57;33.97;;;28.00;;
42702;SDS011;28341;52.064;4.920;2023-06-22T07:14:02;31.55;;;27.50;;
42702;SDS011;28341;52.064;4.920;2023-06-22T07:16:06;33.67;;;27.13;;
42702;SDS011;28341;52.064;4.920;2023-06-22T07:18:13;33.17;;;28.08;;
42702;SDS011;28341;52.064;4.920;2023-06-22T07:20:17;31.85;;;27.35;;
42702;SDS011;28341;52.064;4.920;2023-06-22T07:22:22;32.55;;;28.65;;
42702;SDS011;28341;52.064;4.920;2023-06-22T07:24:26;36.72;;;29.45;;
42702;SDS011;28341;52.064;4.920;2023-06-22T07:26:32;34.28;;;30.58;;
42702;SDS011;28341;52.064;4.920;2023-06-22T07:28:37;39.38;;;31.48;;
42702;SDS011;28341;52.064;4.920;2023-06-22T07:30:41;39.78;;;28.88;;
42702;SDS011;28341;52.064;4.920;2023-06-22T07:32:45;33.95;;;29.38;;
42702;SDS011;28341;52.064;4.920;2023-06-22T07:34:52;34.55;;;29.20;;
42702;SDS011;28341;52.064;4.920;2023-06-22T07:36:56;37.67;;;28.63;;
42702;SDS011;28341;52.064;4.920;2023-06-22T07:39:00;31.75;;;26.10;;
42702;SDS011;28341;52.064;4.920;2023-06-22T07:41:05;29.02;;;23.83;;
42702;SDS011;28341;52.064;4.920;2023-06-22T07:43:09;33.38;;;23.60;;
42702;SDS011;28341;52.064;4.920;2023-06-22T07:45:13;27.67;;;23.33;;
42702;SDS011;28341;52.064;4.920;2023-06-22T07:47:17;31.92;;;23.10;;
42702;SDS011;28341;52.064;4.920;2023-06-22T07:49:25;28.40;;;22.83;;
42702;SDS011;28341;52.064;4.920;2023-06-22T07:51:33;25.77;;;21.95;;
42702;SDS011;28341;52.064;4.920;2023-06-22T07:53:37;25.13;;;22.35;;
42702;SDS011;28341;52.064;4.920;2023-06-22T07:55:42;26.13;;;22.45;;
42702;SDS011;28341;52.064;4.920;2023-06-22T07:57:46;24.33;;;20.95;;
42702;SDS011;28341;52.064;4.920;2023-06-22T07:59:52;24.42;;;20.45;;
42702;SDS011;28341;52.064;4.920;2023-06-22T08:01:56;19.02;;;16.88;;
42702;SDS011;28341;52.064;4.920;2023-06-22T08:04:01;21.38;;;17.60;;
42702;SDS011;28341;52.064;4.920;2023-06-22T08:06:07;21.65;;;17.55;;
42702;SDS011;28341;52.064;4.920;2023-06-22T08:08:15;19.38;;;16.10;;
42702;SDS011;28341;52.064;4.920;2023-06-22T08:10:20;18.17;;;16.17;;
42702;SDS011;28341;52.064;4.920;2023-06-22T08:12:24;21.60;;;18.23;;
42702;SDS011;28341;52.064;4.920;2023-06-22T08:14:29;21.67;;;17.17;;
42702;SDS011;28341;52.064;4.920;2023-06-22T08:16:36;20.27;;;18.15;;
42702;SDS011;28341;52.064;4.920;2023-06-22T08:18:40;24.55;;;19.73;;
42702;SDS011;28341;52.064;4.920;2023-06-22T08:20:45;29.75;;;24.05;;
42702;SDS011;28341;52.064;4.920;2023-06-22T08:22:49;21.20;;;17.67;;
42702;SDS011;28341;52.064;4.920;2023-06-22T08:24:56;18.95;;;15.38;;
42702;SDS011;28341;52.064;4.920;2023-06-22T08:27:01;22.83;;;17.45;;
42702;SDS011;28341;52.064;4.920;2023-06-22T08:29:05;19.63;;;16.48;;
42702;SDS011;28341;52.064;4.920;2023-06-22T08:31:09;23.13;;;17.02;;
42702;SDS011;28341;52.064;4.920;2023-06-22T08:33:14;19.38;;;16.00;;
42702;SDS011;28341;52.064;4.920;2023-06-22T08:35:19;21.27;;;16.55;;
42702;SDS011;28341;52.064;4.920;2023-06-22T08:37:23;17.63;;;15.18;;
42702;SDS011;28341;52.064;4.920;2023-06-22T08:39:30;15.02;;;13.02;;
42702;SDS011;28341;52.064;4.920;2023-06-22T08:41:37;15.13;;;13.52;;
42702;SDS011;28341;52.064;4.920;2023-06-22T08:43:42;14.77;;;13.07;;
42702;SDS011;28341;52.064;4.920;2023-06-22T08:45:46;19.00;;;14.02;;
42702;SDS011;28341;52.064;4.920;2023-06-22T08:47:51;15.65;;;11.85;;
42702;SDS011;28341;52.064;4.920;2023-06-22T08:49:55;17.50;;;12.57;;
42702;SDS011;28341;52.064;4.920;2023-06-22T08:51:59;14.63;;;13.07;;
42702;SDS011;28341;52.064;4.920;2023-06-22T08:54:03;14.20;;;12.80;;
42702;SDS011;28341;52.064;4.920;2023-06-22T08:56:08;12.98;;;11.35;;
42702;SDS011;28341;52.064;4.920;2023-06-22T08:58:15;15.38;;;10.02;;
42702;SDS011;28341;52.064;4.920;2023-06-22T09:00:20;17.63;;;10.55;;
42702;SDS011;28341;52.064;4.920;2023-06-22T09:02:24;14.10;;;11.38;;
42702;SDS011;28341;52.064;4.920;2023-06-22T09:04:30;16.70;;;13.45;;
42702;SDS011;28341;52.064;4.920;2023-06-22T09:06:34;18.88;;;13.63;;
42702;SDS011;28341;52.064;4.920;2023-06-22T09:08:41;17.05;;;13.10;;
42702;SDS011;28341;52.064;4.920;2023-06-22T09:10:46;22.85;;;14.55;;
42702;SDS011;28341;52.064;4.920;2023-06-22T09:12:50;16.73;;;13.20;;
42702;SDS011;28341;52.064;4.920;2023-06-22T09:14:57;17.73;;;14.95;;
42702;SDS011;28341;52.064;4.920;2023-06-22T09:17:04;19.38;;;15.25;;
42702;SDS011;28341;52.064;4.920;2023-06-22T09:19:09;16.20;;;14.50;;
42702;SDS011;28341;52.064;4.920;2023-06-22T09:21:13;15.45;;;13.48;;
42702;SDS011;28341;52.064;4.920;2023-06-22T09:23:17;17.42;;;15.20;;
42702;SDS011;28341;52.064;4.920;2023-06-22T09:25:22;16.30;;;13.82;;
42702;SDS011;28341;52.064;4.920;2023-06-22T09:27:26;22.08;;;17.35;;
42702;SDS011;28341;52.064;4.920;2023-06-22T09:29:31;28.05;;;23.85;;
42702;SDS011;28341;52.064;4.920;2023-06-22T09:31:38;19.33;;;16.40;;
42702;SDS011;28341;52.064;4.920;2023-06-22T09:33:43;18.65;;;15.15;;
42702;SDS011;28341;52.064;4.920;2023-06-22T09:35:47;15.48;;;13.80;;
42702;SDS011;28341;52.064;4.920;2023-06-22T09:37:52;18.05;;;14.55;;
42702;SDS011;28341;52.064;4.920;2023-06-22T09:39:56;19.85;;;13.85;;
42702;SDS011;28341;52.064;4.920;2023-06-22T09:42:01;15.75;;;14.18;;
42702;SDS011;28341;52.064;4.920;2023-06-22T09:44:06;15.77;;;13.05;;
42702;SDS011;28341;52.064;4.920;2023-06-22T09:46:10;17.00;;;14.68;;
42702;SDS011;28341;52.064;4.920;2023-06-22T09:48:17;14.23;;;12.82;;
42702;SDS011;28341;52.064;4.920;2023-06-22T09:50:22;18.60;;;14.93;;
42702;SDS011;28341;52.064;4.920;2023-06-22T09:52:26;16.77;;;14.25;;
42702;SDS011;28341;52.064;4.920;2023-06-22T09:54:31;16.08;;;13.30;;
42702;SDS011;28341;52.064;4.920;2023-06-22T09:56:35;18.65;;;13.45;;
42702;SDS011;28341;52.064;4.920;2023-06-22T09:58:40;20.42;;;15.32;;
42702;SDS011;28341;52.064;4.920;2023-06-22T10:00:46;20.40;;;15.02;;
42702;SDS011;28341;52.064;4.920;2023-06-22T10:02:50;23.70;;;13.90;;
42702;SDS011;28341;52.064;4.920;2023-06-22T10:04:58;19.58;;;13.93;;
42702;SDS011;28341;52.064;4.920;2023-06-22T10:07:03;16.20;;;14.13;;
42702;SDS011;28341;52.064;4.920;2023-06-22T10:09:08;15.40;;;13.30;;
42702;SDS011;28341;52.064;4.920;2023-06-22T10:11:12;14.30;;;12.80;;
42702;SDS011;28341;52.064;4.920;2023-06-22T10:13:17;16.55;;;12.20;;
42702;SDS011;28341;52.064;4.920;2023-06-22T10:15:21;14.40;;;12.00;;
42702;SDS011;28341;52.064;4.920;2023-06-22T10:17:27;14.20;;;11.27;;
42702;SDS011;28341;52.064;4.920;2023-06-22T10:19:31;14.18;;;10.60;;
42702;SDS011;28341;52.064;4.920;2023-06-22T10:21:40;12.52;;;10.57;;
42702;SDS011;28341;52.064;4.920;2023-06-22T10:23:44;12.27;;;10.18;;
42702;SDS011;28341;52.064;4.920;2023-06-22T10:25:48;11.85;;;9.10;;
42702;SDS011;28341;52.064;4.920;2023-06-22T10:27:53;15.15;;;10.05;;
42702;SDS011;28341;52.064;4.920;2023-06-22T10:29:57;16.58;;;9.15;;
42702;SDS011;28341;52.064;4.920;2023-06-22T10:32:02;10.57;;;8.68;;
42702;SDS011;28341;52.064;4.920;2023-06-22T10:34:06;11.00;;;9.35;;
42702;SDS011;28341;52.064;4.920;2023-06-22T10:36:11;11.75;;;8.98;;
42702;SDS011;28341;52.064;4.920;2023-06-22T10:38:18;12.82;;;9.20;;
42702;SDS011;28341;52.064;4.920;2023-06-22T10:40:22;11.20;;;8.20;;
42702;SDS011;28341;52.064;4.920;2023-06-22T10:42:26;9.32;;;7.45;;
42702;SDS011;28341;52.064;4.920;2023-06-22T10:44:31;9.40;;;8.20;;
42702;SDS011;28341;52.064;4.920;2023-06-22T10:46:35;10.10;;;7.72;;
42702;SDS011;28341;52.064;4.920;2023-06-22T10:48:40;10.70;;;7.05;;
42702;SDS011;28341;52.064;4.920;2023-06-22T10:50:44;14.68;;;8.27;;
42702;SDS011;28341;52.064;4.920;2023-06-22T10:52:50;11.15;;;7.72;;
42702;SDS011;28341;52.064;4.920;2023-06-22T10:54:57;12.00;;;8.55;;
42702;SDS011;28341;52.064;4.920;2023-06-22T10:57:01;25.33;;;21.20;;
42702;SDS011;28341;52.064;4.920;2023-06-22T10:59:06;12.80;;;9.85;;
42702;SDS011;28341;52.064;4.920;2023-06-22T11:01:10;11.93;;;8.13;;
42702;SDS011;28341;52.064;4.920;2023-06-22T11:03:15;9.60;;;7.72;;
42702;SDS011;28341;52.064;4.920;2023-06-22T11:05:19;9.35;;;7.05;;
42702;SDS011;28341;52.064;4.920;2023-06-22T11:07:24;11.38;;;7.47;;
42702;SDS011;28341;52.064;4.920;2023-06-22T11:09:29;6.43;;;5.70;;
42702;SDS011;28341;52.064;4.920;2023-06-22T11:11:36;9.18;;;7.28;;
42702;SDS011;28341;52.064;4.920;2023-06-22T11:13:40;10.85;;;7.97;;
42702;SDS011;28341;52.064;4.920;2023-06-22T11:15:45;11.50;;;8.55;;
42702;SDS011;28341;52.064;4.920;2023-06-22T11:17:49;12.45;;;9.13;;
42702;SDS011;28341;52.064;4.920;2023-06-22T11:19:54;11.40;;;10.07;;
42702;SDS011;28341;52.064;4.920;2023-06-22T11:22:00;12.90;;;8.75;;
42702;SDS011;28341;52.064;4.920;2023-06-22T11:24:05;11.73;;;9.45;;
42702;SDS011;28341;52.064;4.920;2023-06-22T11:26:09;9.30;;;7.53;;
42702;SDS011;28341;52.064;4.920;2023-06-22T11:28:17;9.70;;;8.70;;
42702;SDS011;28341;52.064;4.920;2023-06-22T11:30:21;12.57;;;8.23;;
42702;SDS011;28341;52.064;4.920;2023-06-22T11:32:26;11.85;;;7.82;;
42702;SDS011;28341;52.064;4.920;2023-06-22T11:34:30;10.43;;;8.02;;
42702;SDS011;28341;52.064;4.920;2023-06-22T11:36:34;12.20;;;9.95;;
42702;SDS011;28341;52.064;4.920;2023-06-22T11:38:38;19.25;;;12.40;;
42702;SDS011;28341;52.064;4.920;2023-06-22T11:40:42;15.27;;;12.63;;
42702;SDS011;28341;52.064;4.920;2023-06-22T11:42:46;17.52;;;15.65;;
42702;SDS011;28341;52.064;4.920;2023-06-22T11:44:53;20.33;;;17.98;;
42702;SDS011;28341;52.064;4.920;2023-06-22T11:46:57;20.40;;;16.90;;
42702;SDS011;28341;52.064;4.920;2023-06-22T11:49:01;23.17;;;17.98;;
42702;SDS011;28341;52.064;4.920;2023-06-22T11:51:05;21.73;;;17.17;;
42702;SDS011;28341;52.064;4.920;2023-06-22T11:53:09;26.63;;;21.52;;
42702;SDS011;28341;52.064;4.920;2023-06-22T11:55:16;23.58;;;19.63;;
42702;SDS011;28341;52.064;4.920;2023-06-22T11:57:20;22.58;;;19.52;;
42702;SDS011;28341;52.064;4.920;2023-06-22T11:59:24;25.55;;;20.67;;
42702;SDS011;28341;52.064;4.920;2023-06-22T12:01:31;22.02;;;19.52;;
42702;SDS011;28341;52.064;4.920;2023-06-22T12:03:36;22.25;;;18.33;;
42702;SDS011;28341;52.064;4.920;2023-06-22T12:05:40;21.52;;;19.17;;
42702;SDS011;28341;52.064;4.920;2023-06-22T12:07:44;25.33;;;19.42;;
42702;SDS011;28341;52.064;4.920;2023-06-22T12:09:48;24.15;;;20.23;;
42702;SDS011;28341;52.064;4.920;2023-06-22T12:11:52;31.08;;;20.63;;
42702;SDS011;28341;52.064;4.920;2023-06-22T12:13:56;24.00;;;21.48;;
42702;SDS011;28341;52.064;4.920;2023-06-22T12:16:02;24.30;;;20.65;;